createdAt,value
2022-08-05T00:01:28.867Z,3.17
2022-08-05T00:03:57.229Z,2.70
2022-08-05T00:06:32.137Z,2.85
2022-08-05T00:09:00.526Z,3.03
2022-08-05T00:11:34.473Z,2.90
2022-08-05T00:14:16.906Z,2.90
2022-08-05T00:16:52.920Z,3.28
2022-08-05T00:19:22.538Z,3.28
2022-08-05T00:21:50.519Z,2.97
2022-08-05T00:24:24.144Z,3.45
2022-08-05T00:26:52.975Z,3.10
2022-08-05T00:29:22.559Z,3.33
2022-08-05T00:32:10.591Z,3.47
2022-08-05T00:34:53.754Z,2.80
2022-08-05T00:37:24.512Z,3.47
2022-08-05T00:39:58.682Z,3.40
2022-08-05T00:42:37.020Z,3.22
2022-08-05T00:45:06.638Z,3.25
2022-08-05T00:47:56.706Z,3.00
2022-08-05T00:50:25.497Z,3.03
2022-08-05T00:52:53.392Z,3.35
2022-08-05T00:55:22.513Z,3.38
2022-08-05T00:57:58.077Z,3.40
2022-08-05T01:00:26.266Z,3.33
2022-08-05T01:02:53.448Z,3.53
2022-08-05T01:05:20.707Z,4.00
2022-08-05T01:08:41.179Z,3.30
2022-08-05T01:10:41.294Z,3.20
2022-08-05T01:13:27.482Z,2.97
2022-08-05T01:16:14.537Z,3.30
2022-08-05T01:18:56.133Z,3.65
2022-08-05T01:21:38.077Z,3.20
2022-08-05T01:24:13.016Z,3.30
2022-08-05T01:27:01.433Z,3.30
2022-08-05T01:29:47.791Z,3.55
2022-08-05T01:32:19.313Z,3.60
2022-08-05T01:34:48.093Z,3.60
2022-08-05T01:37:25.158Z,3.42
2022-08-05T01:39:58.759Z,3.50
2022-08-05T01:42:27.352Z,3.72
2022-08-05T01:44:57.002Z,3.92
2022-08-05T01:47:39.400Z,3.55
2022-08-05T01:50:09.270Z,3.55
2022-08-05T01:52:43.600Z,3.95
2022-08-05T01:55:12.618Z,3.45
2022-08-05T01:58:10.381Z,3.78
2022-08-05T02:00:31.343Z,3.40
2022-08-05T02:03:00.800Z,4.00
2022-08-05T02:05:34.307Z,3.95
2022-08-05T02:08:03.351Z,3.58
2022-08-05T02:10:34.780Z,3.60
2022-08-05T02:13:36.449Z,3.90
2022-08-05T02:16:28.518Z,3.73
2022-08-05T02:19:07.816Z,3.60
2022-08-05T02:21:43.236Z,4.40
2022-08-05T02:24:17.905Z,3.97
2022-08-05T02:26:53.871Z,3.80
2022-08-05T02:29:26.155Z,3.58
2022-08-05T02:32:10.744Z,3.63
2022-08-05T02:34:38.859Z,4.03
2022-08-05T02:37:09.562Z,4.15
2022-08-05T02:39:38.774Z,3.72
2022-08-05T02:42:09.327Z,3.63
2022-08-05T02:44:38.185Z,3.90
2022-08-05T02:47:07.018Z,4.03
2022-08-05T02:49:40.465Z,4.13
2022-08-05T02:54:37.185Z,3.72
2022-08-05T02:57:10.111Z,3.38
2022-08-05T02:59:54.656Z,4.00
2022-08-05T03:02:24.019Z,3.63
2022-08-05T03:04:55.361Z,3.60
2022-08-05T03:07:56.592Z,4.43
2022-08-05T03:10:10.369Z,3.80
2022-08-05T03:12:40.506Z,4.15
2022-08-05T03:15:09.689Z,4.32
2022-08-05T03:17:41.891Z,4.07
2022-08-05T03:20:13.483Z,3.78
2022-08-05T03:22:46.742Z,3.78
2022-08-05T03:25:34.094Z,3.83
2022-08-05T03:28:07.162Z,3.95
2022-08-05T03:30:36.078Z,4.38
2022-08-05T03:33:04.205Z,3.90
2022-08-05T03:35:33.679Z,4.20
2022-08-05T03:38:01.303Z,3.60
2022-08-05T03:40:32.250Z,4.53
2022-08-05T03:43:15.678Z,4.18
2022-08-05T03:45:57.431Z,5.68
2022-08-05T03:48:25.577Z,4.07
2022-08-05T03:50:54.068Z,4.20
2022-08-05T03:55:34.662Z,5.63
2022-08-05T03:56:33.057Z,6.03
2022-08-05T03:59:03.621Z,6.85
2022-08-05T04:01:33.830Z,8.10
2022-08-05T04:04:09.381Z,8.95
2022-08-05T04:06:38.184Z,10.52
2022-08-05T04:09:15.396Z,6.88
2022-08-05T04:11:52.475Z,6.17
2022-08-05T04:14:29.854Z,4.90
2022-08-05T04:16:58.573Z,4.68
2022-08-05T04:19:25.714Z,4.50
2022-08-05T04:22:08.467Z,4.80
2022-08-05T04:24:43.904Z,5.18
2022-08-05T04:29:38.956Z,5.20
2022-08-05T04:32:06.661Z,5.15
2022-08-05T04:34:36.649Z,5.10
2022-08-05T04:37:09.926Z,5.00
2022-08-05T04:39:38.031Z,5.57
2022-08-05T04:42:06.548Z,5.10
2022-08-05T04:44:33.762Z,5.13
2022-08-05T04:47:09.432Z,6.40
2022-08-05T04:49:39.135Z,5.25
2022-08-05T04:52:27.735Z,5.22
2022-08-05T04:54:57.371Z,5.55
2022-08-05T04:57:28.585Z,4.82
2022-08-05T04:59:56.550Z,4.68
2022-08-05T05:02:36.305Z,5.72
2022-08-05T05:05:26.376Z,6.78
2022-08-05T05:07:56.217Z,7.95
2022-08-05T05:10:24.201Z,6.22
2022-08-05T05:12:51.354Z,5.43
2022-08-05T05:15:57.341Z,4.80
2022-08-05T05:18:06.037Z,4.60
2022-08-05T05:20:33.675Z,4.72
2022-08-05T05:23:06.805Z,4.30
2022-08-05T05:25:40.948Z,4.80
2022-08-05T05:28:08.772Z,3.80
2022-08-05T05:30:36.481Z,4.07
2022-08-05T05:33:14.159Z,4.05
2022-08-05T05:35:45.731Z,4.45
2022-08-05T05:38:14.269Z,6.00
2022-08-05T05:40:48.249Z,4.75
2022-08-05T05:43:27.629Z,4.20
2022-08-05T05:46:05.205Z,4.28
2022-08-05T05:48:34.713Z,3.88
2022-08-05T05:51:15.034Z,4.20
2022-08-05T05:53:54.606Z,4.50
2022-08-05T05:56:25.946Z,4.43
2022-08-05T05:59:03.437Z,3.97
2022-08-05T06:01:37.035Z,4.07
2022-08-05T06:04:05.940Z,4.13
2022-08-05T06:06:34.964Z,4.30
2022-08-05T06:09:04.004Z,4.38
2022-08-05T06:11:31.476Z,4.00
2022-08-05T06:14:00.322Z,4.20
2022-08-05T06:16:36.967Z,3.80
2022-08-05T06:19:05.661Z,3.55
2022-08-05T06:21:36.734Z,3.95
2022-08-05T06:24:12.004Z,3.45
2022-08-05T06:26:51.010Z,4.25
2022-08-05T06:29:25.422Z,4.30
2022-08-05T06:32:06.291Z,4.53
2022-08-05T06:34:53.404Z,4.80
2022-08-05T06:37:56.059Z,4.25
2022-08-05T06:40:08.947Z,4.80
2022-08-05T06:42:36.045Z,4.10
2022-08-05T06:45:08.685Z,4.32
2022-08-05T06:48:36.080Z,3.50
2022-08-05T06:50:23.605Z,2.65
2022-08-05T06:52:58.635Z,1.80
2022-08-05T06:55:36.178Z,1.60
2022-08-05T06:58:29.782Z,1.50
2022-08-05T07:00:51.095Z,1.88
2022-08-05T07:03:18.464Z,1.58
2022-08-05T07:05:46.192Z,1.63
2022-08-05T07:08:13.780Z,1.75
2022-08-05T07:10:53.263Z,1.25
2022-08-05T07:13:58.014Z,1.30
2022-08-05T07:17:56.940Z,1.50
2022-08-05T07:20:05.811Z,1.40
2022-08-05T07:22:28.233Z,1.10
2022-08-05T07:24:57.383Z,1.40
2022-08-05T07:27:27.649Z,1.30
2022-08-05T07:30:24.367Z,1.40
2022-08-05T07:32:55.536Z,1.00
2022-08-05T07:36:03.518Z,1.30
2022-08-05T07:38:26.348Z,1.20
2022-08-05T07:41:04.488Z,1.10
2022-08-05T07:43:46.601Z,1.30
2022-08-05T07:46:24.657Z,1.65
2022-08-05T07:49:01.797Z,1.30
2022-08-05T07:51:36.739Z,1.38
2022-08-05T07:54:08.337Z,1.40
2022-08-05T07:57:00.667Z,1.15
2022-08-05T07:59:38.871Z,1.20
2022-08-05T08:02:15.220Z,1.45
2022-08-05T08:04:45.110Z,1.10
2022-08-05T08:07:12.678Z,1.10
2022-08-05T08:09:39.774Z,1.23
2022-08-05T08:12:16.951Z,1.00
2022-08-05T08:14:54.329Z,1.10
2022-08-05T08:17:21.808Z,1.10
2022-08-05T08:20:22.151Z,1.02
2022-08-05T08:22:36.588Z,1.30
2022-08-05T08:25:15.675Z,0.90
2022-08-05T08:27:45.054Z,0.70
2022-08-05T08:30:28.493Z,0.90
2022-08-05T08:33:04.814Z,1.10
2022-08-05T08:35:41.298Z,0.90
2022-08-05T08:38:16.248Z,0.80
2022-08-05T08:40:50.499Z,1.20
2022-08-05T08:44:54.731Z,1.10
2022-08-05T08:46:10.010Z,1.17
2022-08-05T08:49:04.149Z,0.90
2022-08-05T08:52:05.671Z,1.10
2022-08-05T08:54:20.146Z,1.35
2022-08-05T08:56:49.685Z,0.98
2022-08-05T08:59:19.692Z,1.10
2022-08-05T09:01:57.257Z,0.90
2022-08-05T09:04:30.592Z,1.00
2022-08-05T09:06:58.473Z,0.93
2022-08-05T09:09:32.496Z,1.30
2022-08-05T09:12:20.706Z,1.17
2022-08-05T09:15:01.101Z,1.30
2022-08-05T09:17:43.144Z,1.45
2022-08-05T09:20:36.443Z,1.27
2022-08-05T09:23:09.267Z,0.80
2022-08-05T09:26:01.558Z,1.10
2022-08-05T09:28:32.164Z,1.33
2022-08-05T09:31:43.508Z,0.90
2022-08-05T09:33:58.532Z,0.73
2022-08-05T09:36:38.773Z,0.90
2022-08-05T09:39:27.742Z,1.08
2022-08-05T09:42:11.445Z,1.40
2022-08-05T09:44:46.071Z,0.90
2022-08-05T09:47:20.409Z,0.40
2022-08-05T09:50:01.056Z,0.93
2022-08-05T09:52:29.717Z,0.50
2022-08-05T09:55:56.674Z,0.60
2022-08-05T09:57:59.735Z,0.32
2022-08-05T10:00:27.733Z,0.60
2022-08-05T10:02:58.499Z,0.50
2022-08-05T10:05:27.795Z,0.98
2022-08-05T10:08:34.719Z,0.77
2022-08-05T10:10:46.272Z,0.60
2022-08-05T10:13:44.157Z,0.60
2022-08-05T10:16:33.861Z,0.70
2022-08-05T10:19:01.228Z,0.90
2022-08-05T10:21:40.491Z,0.60
2022-08-05T10:24:10.600Z,0.50
2022-08-05T10:26:51.637Z,0.60
2022-08-05T10:29:24.072Z,0.70
2022-08-05T10:32:55.078Z,0.73
2022-08-05T10:35:01.061Z,0.80
2022-08-05T10:37:37.122Z,0.70
2022-08-05T10:40:17.485Z,0.80
2022-08-05T10:42:48.030Z,0.52
2022-08-05T10:45:24.059Z,0.70
2022-08-05T10:48:35.075Z,0.60
2022-08-05T10:51:22.506Z,0.90
2022-08-05T10:54:01.058Z,0.88
2022-08-05T10:56:29.837Z,0.70
2022-08-05T10:58:56.939Z,0.75
2022-08-05T11:01:54.144Z,0.80
2022-08-05T11:04:26.184Z,0.80
2022-08-05T11:07:04.986Z,0.80
2022-08-05T11:09:47.047Z,0.73
2022-08-05T11:12:33.240Z,0.60
2022-08-05T11:15:19.103Z,0.68
2022-08-05T11:17:59.072Z,0.90
2022-08-05T11:20:45.177Z,1.13
2022-08-05T11:24:02.604Z,0.80
2022-08-05T11:26:28.796Z,0.80
2022-08-05T11:29:06.612Z,0.80
2022-08-05T11:31:54.030Z,0.90
2022-08-05T11:34:36.880Z,0.70
2022-08-05T11:37:06.157Z,0.80
2022-08-05T11:40:00.557Z,0.60
2022-08-05T11:42:30.957Z,0.70
2022-08-05T11:45:03.266Z,0.85
2022-08-05T11:47:49.241Z,0.70
2022-08-05T11:50:17.825Z,0.80
2022-08-05T11:52:48.828Z,0.90
2022-08-05T11:55:16.921Z,0.90
2022-08-05T11:58:09.327Z,0.70
2022-08-05T12:00:37.992Z,0.90
2022-08-05T12:03:29.030Z,1.17
2022-08-05T12:06:02.788Z,0.73
2022-08-05T12:08:31.425Z,0.90
2022-08-05T12:11:00.366Z,0.93
2022-08-05T12:13:48.919Z,1.20
2022-08-05T12:16:19.017Z,1.45
2022-08-05T12:18:49.399Z,1.00
2022-08-05T12:21:19.954Z,1.20
2022-08-05T12:23:55.448Z,1.15
2022-08-05T12:26:23.079Z,1.30
2022-08-05T12:28:51.469Z,1.30
2022-08-05T12:31:28.066Z,0.90
2022-08-05T12:34:01.378Z,1.10
2022-08-05T12:36:31.093Z,1.10
2022-08-05T12:38:59.155Z,1.08
2022-08-05T12:41:34.296Z,1.15
2022-08-05T12:44:03.651Z,1.05
2022-08-05T12:46:31.625Z,0.90
2022-08-05T12:49:13.112Z,0.98
2022-08-05T12:52:14.006Z,1.00
2022-08-05T12:54:49.748Z,1.20
2022-08-05T12:57:17.451Z,1.23
2022-08-05T13:00:08.809Z,0.85
2022-08-05T13:02:36.284Z,1.20
2022-08-05T13:05:07.059Z,1.00
2022-08-05T13:08:01.263Z,0.90
2022-08-05T13:10:22.063Z,1.23
2022-08-05T13:12:51.322Z,0.80
2022-08-05T13:15:36.101Z,1.27
2022-08-05T13:18:19.659Z,0.60
2022-08-05T13:20:51.993Z,0.55
2022-08-05T13:23:22.629Z,0.80
2022-08-05T13:25:58.620Z,0.60
2022-08-05T13:28:27.040Z,1.15
2022-08-05T13:30:54.198Z,0.70
2022-08-05T13:34:23.604Z,1.00
2022-08-05T13:36:10.855Z,0.95
2022-08-05T13:38:38.413Z,1.10
2022-08-05T13:41:10.756Z,0.90
2022-08-05T13:43:44.246Z,0.95
2022-08-05T13:46:16.230Z,0.70
2022-08-05T13:48:58.154Z,0.50
2022-08-05T13:51:40.367Z,0.90
2022-08-05T13:54:12.428Z,0.90
2022-08-05T13:56:45.415Z,0.70
2022-08-05T13:59:20.326Z,0.90
2022-08-05T14:01:56.696Z,0.90
2022-08-05T14:04:50.057Z,0.50
2022-08-05T14:07:26.056Z,0.70
2022-08-05T14:10:13.416Z,0.80
2022-08-05T14:12:42.648Z,1.02
2022-08-05T14:16:07.405Z,0.90
2022-08-05T14:17:59.814Z,0.80
2022-08-05T14:20:29.862Z,0.88
2022-08-05T14:22:57.868Z,0.70
2022-08-05T14:25:28.022Z,1.00
2022-08-05T14:27:56.022Z,0.85
2022-08-05T14:30:25.537Z,0.68
2022-08-05T14:32:53.860Z,1.00
2022-08-05T14:35:22.865Z,1.20
2022-08-05T14:37:55.039Z,1.00
2022-08-05T14:40:24.554Z,1.33
2022-08-05T14:42:52.036Z,1.00
2022-08-05T14:45:19.531Z,0.80
2022-08-05T14:48:03.574Z,1.20
2022-08-05T14:50:33.028Z,1.00
2022-08-05T14:53:03.317Z,0.82
2022-08-05T14:55:39.353Z,1.20
2022-08-05T14:58:11.296Z,0.93
2022-08-05T15:00:59.283Z,0.93
2022-08-05T15:03:33.896Z,1.27
2022-08-05T15:06:07.695Z,1.35
2022-08-05T15:09:01.430Z,1.17
2022-08-05T15:11:52.864Z,1.33
2022-08-05T15:14:20.267Z,1.30
2022-08-05T15:17:01.570Z,1.05
2022-08-05T15:19:31.044Z,1.10
2022-08-05T15:22:00.275Z,1.40
2022-08-05T15:24:28.326Z,1.30
2022-08-05T15:26:55.895Z,1.45
2022-08-05T15:29:23.471Z,1.42
2022-08-05T15:31:53.072Z,1.00
2022-08-05T15:34:32.356Z,1.48
2022-08-05T15:37:06.249Z,1.25
2022-08-05T15:41:03.338Z,1.42
2022-08-05T15:42:53.549Z,1.38
2022-08-05T15:45:11.373Z,1.70
2022-08-05T15:47:42.749Z,1.92
2022-08-05T15:50:15.295Z,1.70
2022-08-05T15:52:53.676Z,1.83
2022-08-05T15:55:24.828Z,1.83
2022-08-05T15:57:52.423Z,1.63
2022-08-05T16:00:25.971Z,1.95
2022-08-05T16:02:59.993Z,2.45
2022-08-05T16:05:28.368Z,1.67
2022-08-05T16:07:57.055Z,1.58
2022-08-05T16:10:25.516Z,1.98
2022-08-05T16:12:55.933Z,1.60
2022-08-05T16:15:23.832Z,1.95
2022-08-05T16:17:57.523Z,1.88
2022-08-05T16:20:25.286Z,1.85
2022-08-05T16:22:52.607Z,1.80
2022-08-05T16:25:19.794Z,2.35
2022-08-05T16:28:04.962Z,2.50
2022-08-05T16:30:34.174Z,2.55
2022-08-05T16:33:03.247Z,2.70
2022-08-05T16:35:33.546Z,2.75
2022-08-05T16:38:24.700Z,3.13
2022-08-05T16:40:55.458Z,3.63
2022-08-05T16:43:27.674Z,3.20
2022-08-05T16:46:07.209Z,4.28
2022-08-05T16:48:39.877Z,6.82
2022-08-05T16:51:09.913Z,4.07
2022-08-05T16:54:05.614Z,4.85
2022-08-05T16:56:26.251Z,4.70
2022-08-05T16:58:53.325Z,4.93
2022-08-05T17:01:20.963Z,5.18
2022-08-05T17:03:48.147Z,5.38
2022-08-05T17:06:16.549Z,5.35
2022-08-05T17:08:53.304Z,6.47
2022-08-05T17:11:23.315Z,6.68
2022-08-05T17:14:00.427Z,7.10
2022-08-05T17:16:37.284Z,7.72
2022-08-05T17:19:09.542Z,7.95
2022-08-05T17:21:40.084Z,9.30
2022-08-05T17:24:27.978Z,7.18
2022-08-05T17:26:58.536Z,7.22
2022-08-05T17:29:33.249Z,7.43
2022-08-05T17:32:07.062Z,6.40
2022-08-05T17:34:37.988Z,7.43
2022-08-05T17:37:32.111Z,6.50
2022-08-05T17:39:55.248Z,5.97
2022-08-05T17:42:29.875Z,5.53
2022-08-05T17:44:59.850Z,5.15
2022-08-05T17:47:27.017Z,4.68
2022-08-05T17:50:03.788Z,5.45
2022-08-05T17:52:33.102Z,4.68
2022-08-05T17:55:00.577Z,4.35
2022-08-05T17:57:28.011Z,3.72
2022-08-05T18:00:03.761Z,4.25
2022-08-05T18:02:32.877Z,3.85
2022-08-05T18:05:03.682Z,3.50
2022-08-05T18:07:41.370Z,3.92
2022-08-05T18:10:10.910Z,4.68
2022-08-05T18:12:38.381Z,3.58
2022-08-05T18:15:05.833Z,3.05
2022-08-05T18:18:01.034Z,3.35
2022-08-05T18:20:29.555Z,2.90
2022-08-05T18:23:00.641Z,3.55
2022-08-05T18:25:38.763Z,2.85
2022-08-05T18:28:09.447Z,3.38
2022-08-05T18:30:39.093Z,2.85
2022-08-05T18:33:08.548Z,3.00
2022-08-05T18:36:00.143Z,2.45
2022-08-05T18:38:28.898Z,3.53
2022-08-05T18:41:56.219Z,2.85
2022-08-05T18:43:48.783Z,2.50
2022-08-05T18:46:20.081Z,2.33
2022-08-05T18:48:53.550Z,2.10
2022-08-05T18:52:04.098Z,2.45
2022-08-05T18:54:31.183Z,2.63
2022-08-05T18:57:00.795Z,2.28
2022-08-05T18:59:43.058Z,2.35
2022-08-05T19:02:27.446Z,2.22
2022-08-05T19:05:02.418Z,1.90
2022-08-05T19:07:46.411Z,2.30
2022-08-05T19:10:14.463Z,2.10
2022-08-05T19:12:43.059Z,1.80
2022-08-05T19:15:57.717Z,2.40
2022-08-05T19:18:08.826Z,1.65
2022-08-05T19:20:37.147Z,1.80
2022-08-05T19:23:22.764Z,1.83
2022-08-05T19:26:01.841Z,2.00
2022-08-05T19:28:30.023Z,1.88
2022-08-05T19:30:57.517Z,2.17
2022-08-05T19:33:36.176Z,2.05
2022-08-05T19:36:16.761Z,1.70
2022-08-05T19:38:45.633Z,2.33
2022-08-05T19:41:15.408Z,2.00
2022-08-05T19:44:05.529Z,2.42
2022-08-05T19:46:31.110Z,1.85
2022-08-05T19:49:03.508Z,1.90
2022-08-05T19:52:05.949Z,2.03
2022-08-05T19:54:27.045Z,1.85
2022-08-05T19:56:58.872Z,1.73
2022-08-05T19:59:55.837Z,1.90
2022-08-05T20:02:14.785Z,1.77
2022-08-05T20:04:46.079Z,2.10
2022-08-05T20:07:15.352Z,1.70
2022-08-05T20:09:54.585Z,1.60
2022-08-05T20:12:22.706Z,1.80
2022-08-05T20:14:52.248Z,1.70
2022-08-05T20:17:19.681Z,1.80
2022-08-05T20:19:51.019Z,1.55
2022-08-05T20:22:25.056Z,1.95
2022-08-05T20:24:54.765Z,2.03
2022-08-05T20:27:26.515Z,2.38
2022-08-05T20:29:58.406Z,2.55
2022-08-05T20:32:26.780Z,3.20
2022-08-05T20:34:54.282Z,2.75
2022-08-05T20:38:06.385Z,2.42
2022-08-05T20:40:09.525Z,2.60
2022-08-05T20:42:36.907Z,2.60
2022-08-05T20:45:05.336Z,2.45
2022-08-05T20:47:32.855Z,2.17
2022-08-05T20:50:02.175Z,2.00
2022-08-05T20:52:29.646Z,2.03
2022-08-05T20:54:59.161Z,2.15
2022-08-05T20:57:44.987Z,1.92
2022-08-05T21:00:41.380Z,2.40
2022-08-05T21:03:07.014Z,3.70
2022-08-05T21:05:47.601Z,3.38
2022-08-05T21:08:20.843Z,3.28
2022-08-05T21:10:54.061Z,3.75
2022-08-05T21:13:26.595Z,3.97
2022-08-05T21:16:08.595Z,3.38
2022-08-05T21:18:35.798Z,3.72
2022-08-05T21:21:03.035Z,3.53
2022-08-05T21:23:37.138Z,4.65
2022-08-05T21:26:08.124Z,4.65
2022-08-05T21:31:07.135Z,4.55
2022-08-05T21:33:39.781Z,4.90
2022-08-05T21:36:07.809Z,6.50
2022-08-05T21:38:40.103Z,4.13
2022-08-05T21:41:08.292Z,5.10
2022-08-05T21:43:41.669Z,6.10
2022-08-05T21:46:09.141Z,6.40
2022-08-05T21:48:39.211Z,5.63
2022-08-05T21:51:25.069Z,4.75
2022-08-05T21:53:56.882Z,4.63
2022-08-05T21:56:30.750Z,4.07
2022-08-05T21:58:58.465Z,5.13
2022-08-05T22:01:26.443Z,4.30
2022-08-05T22:03:53.974Z,4.32
2022-08-05T22:06:22.395Z,4.53
2022-08-05T22:08:52.054Z,5.57
2022-08-05T22:11:34.449Z,4.93
2022-08-05T22:14:32.486Z,4.75
2022-08-05T22:16:51.965Z,5.47
2022-08-05T22:20:02.125Z,5.30
2022-08-05T22:22:11.206Z,4.93
2022-08-05T22:24:57.910Z,4.30
2022-08-05T22:28:09.564Z,5.07
2022-08-05T22:30:32.126Z,5.70
2022-08-05T22:33:02.595Z,5.90
2022-08-05T22:35:31.014Z,5.38
2022-08-05T22:38:15.557Z,4.97
2022-08-05T22:40:49.422Z,5.35
2022-08-05T22:43:36.998Z,5.43
2022-08-05T22:46:12.142Z,5.28
2022-08-05T22:48:41.725Z,5.10
2022-08-05T22:51:15.864Z,5.60
2022-08-05T22:53:50.349Z,5.57
2022-08-05T22:56:17.907Z,5.50
2022-08-05T22:58:57.973Z,5.82
2022-08-05T23:02:04.060Z,5.55
2022-08-05T23:04:14.689Z,8.15
2022-08-05T23:06:42.588Z,7.57
2022-08-05T23:09:26.902Z,7.15
2022-08-05T23:11:55.255Z,6.10
2022-08-05T23:14:32.417Z,6.18
2022-08-05T23:17:24.000Z,7.05
2022-08-05T23:20:00.450Z,7.03
2022-08-05T23:22:28.327Z,5.80
2022-08-05T23:24:55.773Z,6.20
2022-08-05T23:27:24.121Z,6.40
2022-08-05T23:29:56.018Z,6.88
2022-08-05T23:32:23.517Z,7.65
2022-08-05T23:34:50.904Z,7.72
2022-08-05T23:37:18.413Z,6.55
2022-08-05T23:39:54.016Z,8.65
2022-08-05T23:42:23.480Z,7.43
2022-08-05T23:47:25.137Z,8.82
2022-08-05T23:49:55.486Z,7.97
2022-08-05T23:52:36.186Z,7.88
2022-08-05T23:55:17.496Z,7.95
2022-08-05T23:57:44.659Z,6.40
